createdAt,value
2023-02-28T00:00:49.956Z,-3.50
2023-02-28T00:03:16.502Z,-3.51
2023-02-28T00:05:42.975Z,-3.53
2023-02-28T00:08:09.578Z,-3.54
2023-02-28T00:10:36.276Z,-3.56
2023-02-28T00:13:03.808Z,-3.58
2023-02-28T00:15:30.281Z,-3.61
2023-02-28T00:17:56.837Z,-3.62
2023-02-28T00:20:23.298Z,-3.66
2023-02-28T00:22:50.519Z,-3.65
2023-02-28T00:25:18.788Z,-3.63
2023-02-28T00:27:45.265Z,-3.66
2023-02-28T00:30:12.921Z,-3.67
2023-02-28T00:32:39.390Z,-3.70
2023-02-28T00:35:06.114Z,-3.76
2023-02-28T00:37:32.542Z,-3.78
2023-02-28T00:39:58.964Z,-3.82
2023-02-28T00:42:25.426Z,-3.84
2023-02-28T00:44:51.889Z,-3.86
2023-02-28T00:47:18.373Z,-3.92
2023-02-28T00:49:45.022Z,-3.94
2023-02-28T00:52:11.473Z,-3.97
2023-02-28T00:54:37.941Z,-4.00
2023-02-28T00:57:04.463Z,-4.02
2023-02-28T00:59:30.975Z,-4.03
2023-02-28T01:01:57.398Z,-4.05
2023-02-28T01:04:23.851Z,-4.07
2023-02-28T01:06:50.380Z,-4.10
2023-02-28T01:09:16.928Z,-4.12
2023-02-28T01:11:44.999Z,-4.15
2023-02-28T01:14:14.987Z,-4.18
2023-02-28T01:16:41.395Z,-4.17
2023-02-28T01:19:07.928Z,-4.17
2023-02-28T01:21:35.844Z,-4.20
2023-02-28T01:24:02.485Z,-4.21
2023-02-28T01:26:28.944Z,-4.22
2023-02-28T01:28:55.385Z,-4.23
2023-02-28T01:31:22.205Z,-4.19
2023-02-28T01:33:48.880Z,-4.19
2023-02-28T01:36:16.334Z,-4.16
2023-02-28T01:38:42.915Z,-4.13
2023-02-28T01:41:09.511Z,-4.12
2023-02-28T01:43:45.279Z,-4.10
2023-02-28T01:46:12.061Z,-4.09
2023-02-28T01:48:39.742Z,-4.08
2023-02-28T01:51:06.876Z,-4.04
2023-02-28T01:53:34.713Z,-4.00
2023-02-28T01:56:01.127Z,-3.99
2023-02-28T01:58:27.653Z,-3.98
2023-02-28T02:00:54.420Z,-3.97
2023-02-28T02:03:20.909Z,-3.96
2023-02-28T02:05:48.826Z,-3.97
2023-02-28T02:08:22.699Z,-4.00
2023-02-28T02:10:51.277Z,-4.05
2023-02-28T02:13:36.315Z,-4.07
2023-02-28T02:16:05.605Z,-4.09
2023-02-28T02:18:40.900Z,-4.13
2023-02-28T02:21:26.312Z,-4.15
2023-02-28T02:23:55.765Z,-4.16
2023-02-28T02:26:40.699Z,-4.18
2023-02-28T02:29:09.915Z,-4.24
2023-02-28T02:31:36.557Z,-4.31
2023-02-28T02:34:21.933Z,-4.34
2023-02-28T02:36:53.257Z,-4.35
2023-02-28T02:39:31.633Z,-4.37
2023-02-28T02:41:59.341Z,-4.36
2023-02-28T02:44:28.283Z,-4.39
2023-02-28T02:46:55.948Z,-4.42
2023-02-28T02:49:24.147Z,-4.46
2023-02-28T02:51:50.605Z,-4.47
2023-02-28T02:54:46.497Z,-4.49
2023-02-28T02:57:14.694Z,-4.53
2023-02-28T02:59:41.596Z,-4.56
2023-02-28T03:02:09.116Z,-4.59
2023-02-28T03:04:37.537Z,-4.60
2023-02-28T03:07:04.037Z,-4.63
2023-02-28T03:09:30.540Z,-4.66
2023-02-28T03:11:57.044Z,-4.67
2023-02-28T03:14:23.501Z,-4.71
2023-02-28T03:16:53.860Z,-4.72
2023-02-28T03:19:38.670Z,-4.73
2023-02-28T03:22:08.187Z,-4.76
2023-02-28T03:24:34.814Z,-4.79
2023-02-28T03:27:24.728Z,-4.82
2023-02-28T03:29:57.387Z,-4.85
2023-02-28T03:32:31.130Z,-4.84
2023-02-28T03:34:59.438Z,-4.84
2023-02-28T03:37:25.998Z,-4.86
2023-02-28T03:40:02.294Z,-4.86
2023-02-28T03:42:37.814Z,-4.85
2023-02-28T03:45:11.992Z,-4.90
2023-02-28T03:47:40.427Z,-4.93
2023-02-28T03:50:09.081Z,-4.94
2023-02-28T03:52:36.336Z,-4.96
2023-02-28T03:55:08.261Z,-4.95
2023-02-28T03:57:40.820Z,-4.94
2023-02-28T04:00:08.948Z,-4.91
2023-02-28T04:02:35.424Z,-4.87
2023-02-28T04:05:31.804Z,-4.84
2023-02-28T04:08:05.217Z,-4.82
2023-02-28T04:10:31.852Z,-4.78
2023-02-28T04:12:58.326Z,-4.76
2023-02-28T04:15:25.734Z,-4.74
2023-02-28T04:17:52.189Z,-4.72
2023-02-28T04:20:18.651Z,-4.69
2023-02-28T04:22:45.125Z,-4.64
2023-02-28T04:25:11.575Z,-4.60
2023-02-28T04:27:38.032Z,-4.54
2023-02-28T04:30:04.767Z,-4.47
2023-02-28T04:32:31.226Z,-4.39
2023-02-28T04:34:57.877Z,-4.32
2023-02-28T04:37:28.887Z,-4.29
2023-02-28T04:39:56.062Z,-4.24
2023-02-28T04:42:22.500Z,-4.21
2023-02-28T04:44:48.937Z,-4.18
2023-02-28T04:47:15.888Z,-4.15
2023-02-28T04:49:42.571Z,-4.11
2023-02-28T04:52:09.133Z,-4.07
2023-02-28T04:54:36.301Z,-4.05
2023-02-28T04:57:02.846Z,-4.02
2023-02-28T04:59:29.278Z,-4.04
2023-02-28T05:01:55.761Z,-4.04
2023-02-28T05:04:22.454Z,-4.06
2023-02-28T05:06:48.953Z,-4.13
2023-02-28T05:09:15.535Z,-4.19
2023-02-28T05:11:41.983Z,-4.23
2023-02-28T05:14:11.027Z,-4.29
2023-02-28T05:16:37.654Z,-4.33
2023-02-28T05:19:04.381Z,-4.37
2023-02-28T05:21:31.998Z,-4.38
2023-02-28T05:23:59.730Z,-4.37
2023-02-28T05:26:26.411Z,-4.36
2023-02-28T05:28:52.882Z,-4.36
2023-02-28T05:31:19.454Z,-4.36
2023-02-28T05:33:46.153Z,-4.35
2023-02-28T05:36:12.689Z,-4.34
2023-02-28T05:38:39.173Z,-4.36
2023-02-28T05:41:06.348Z,-4.35
2023-02-28T05:43:32.835Z,-4.37
2023-02-28T05:45:59.515Z,-4.37
2023-02-28T05:48:27.086Z,-4.36
2023-02-28T05:50:53.598Z,-4.35
2023-02-28T05:53:20.060Z,-4.32
2023-02-28T05:55:46.495Z,-4.29
2023-02-28T05:58:12.924Z,-4.22
2023-02-28T06:00:41.492Z,-4.17
2023-02-28T06:03:08.790Z,-4.10
2023-02-28T06:05:35.316Z,-4.04
2023-02-28T06:08:01.796Z,-3.96
2023-02-28T06:10:28.442Z,-3.87
2023-02-28T06:12:55.232Z,-3.73
2023-02-28T06:15:22.074Z,-3.64
2023-02-28T06:17:48.505Z,-3.56
2023-02-28T06:20:15.008Z,-3.51
2023-02-28T06:22:41.690Z,-3.44
2023-02-28T06:25:08.382Z,-3.37
2023-02-28T06:27:34.984Z,-3.30
2023-02-28T06:30:03.733Z,-3.23
2023-02-28T06:32:30.182Z,-3.18
2023-02-28T06:34:58.359Z,-3.11
2023-02-28T06:37:27.277Z,-3.03
2023-02-28T06:39:54.935Z,-2.96
2023-02-28T06:42:21.513Z,-2.87
2023-02-28T06:44:48.022Z,-2.77
2023-02-28T06:47:14.660Z,-2.71
2023-02-28T06:49:41.149Z,-2.65
2023-02-28T06:52:07.853Z,-2.59
2023-02-28T06:54:34.479Z,-2.52
2023-02-28T06:57:01.118Z,-2.41
2023-02-28T06:59:27.674Z,-2.30
2023-02-28T07:01:54.143Z,-2.22
2023-02-28T07:04:45.756Z,-2.19
2023-02-28T07:07:12.286Z,-2.15
2023-02-28T07:09:38.945Z,-2.10
2023-02-28T07:12:05.506Z,-2.04
2023-02-28T07:14:31.966Z,-1.85
2023-02-28T07:16:58.394Z,-1.69
2023-02-28T07:19:24.936Z,-1.57
2023-02-28T07:21:51.358Z,-1.59
2023-02-28T07:24:19.024Z,-1.60
2023-02-28T07:26:45.520Z,-1.55
2023-02-28T07:29:12.075Z,-1.53
2023-02-28T07:31:38.562Z,-1.52
2023-02-28T07:34:05.590Z,-1.15
2023-02-28T07:36:32.081Z,-0.48
2023-02-28T07:38:59.008Z,0.48
2023-02-28T07:41:29.130Z,1.26
2023-02-28T07:44:00.633Z,2.26
2023-02-28T07:46:29.579Z,3.09
2023-02-28T07:49:00.414Z,3.77
2023-02-28T07:51:27.144Z,4.39
2023-02-28T07:53:53.717Z,5.28
2023-02-28T07:56:20.458Z,6.03
2023-02-28T07:58:49.147Z,6.84
2023-02-28T08:01:15.745Z,7.70
2023-02-28T08:03:42.422Z,8.66
2023-02-28T08:06:09.628Z,9.62
2023-02-28T08:08:36.389Z,10.63
2023-02-28T08:11:03.254Z,11.39
2023-02-28T08:13:30.063Z,11.97
2023-02-28T08:15:56.815Z,12.78
2023-02-28T08:18:23.569Z,13.65
2023-02-28T08:20:50.280Z,14.50
2023-02-28T08:23:16.922Z,15.18
2023-02-28T08:25:43.616Z,15.99
2023-02-28T08:28:10.475Z,16.59
2023-02-28T08:30:37.010Z,16.82
2023-02-28T08:33:03.690Z,17.05
2023-02-28T08:35:30.316Z,17.64
2023-02-28T08:37:56.881Z,17.30
2023-02-28T08:40:23.579Z,17.92
2023-02-28T08:42:50.624Z,17.76
2023-02-28T08:45:17.313Z,17.90
2023-02-28T08:47:43.917Z,17.75
2023-02-28T08:50:10.698Z,16.92
2023-02-28T08:52:37.231Z,15.50
2023-02-28T08:55:03.789Z,14.24
2023-02-28T08:57:30.375Z,13.07
2023-02-28T08:59:56.972Z,11.97
2023-02-28T09:02:23.563Z,10.87
2023-02-28T09:04:50.099Z,9.95
2023-02-28T09:07:16.840Z,9.08
2023-02-28T09:09:54.778Z,8.37
2023-02-28T09:12:22.464Z,7.78
2023-02-28T09:14:48.970Z,7.28
2023-02-28T09:17:16.070Z,6.87
2023-02-28T09:19:43.731Z,6.50
2023-02-28T09:22:10.664Z,6.13
2023-02-28T09:24:38.163Z,5.77
2023-02-28T09:27:05.796Z,5.51
2023-02-28T09:29:33.181Z,5.24
2023-02-28T09:32:00.012Z,5.05
2023-02-28T09:34:27.071Z,4.95
2023-02-28T09:36:55.804Z,4.76
2023-02-28T09:39:22.999Z,4.54
2023-02-28T09:41:51.906Z,4.18
2023-02-28T09:44:37.809Z,3.85
2023-02-28T09:47:07.400Z,3.63
2023-02-28T09:49:38.975Z,3.41
2023-02-28T09:52:10.131Z,3.39
2023-02-28T09:54:37.122Z,3.42
2023-02-28T09:57:12.404Z,3.35
2023-02-28T09:59:57.791Z,3.32
2023-02-28T10:02:30.329Z,3.37
2023-02-28T10:05:00.924Z,3.40
2023-02-28T10:07:45.950Z,3.41
2023-02-28T10:10:26.717Z,3.39
2023-02-28T10:12:53.949Z,3.37
2023-02-28T10:15:20.394Z,3.33
2023-02-28T10:18:00.697Z,3.28
2023-02-28T10:20:36.558Z,3.21
2023-02-28T10:23:08.652Z,3.24
2023-02-28T10:25:35.750Z,3.38
2023-02-28T10:28:05.913Z,3.24
2023-02-28T10:30:35.316Z,3.16
2023-02-28T10:33:01.860Z,3.02
2023-02-28T10:35:28.760Z,2.94
2023-02-28T10:37:56.136Z,2.90
2023-02-28T10:40:22.857Z,3.05
2023-02-28T10:43:05.721Z,2.99
2023-02-28T10:45:33.262Z,2.97
2023-02-28T10:48:06.657Z,3.00
2023-02-28T10:50:46.067Z,3.19
2023-02-28T10:53:18.563Z,3.16
2023-02-28T10:55:45.044Z,3.19
2023-02-28T10:58:24.461Z,3.17
2023-02-28T11:00:51.314Z,3.11
2023-02-28T11:03:24.064Z,3.09
2023-02-28T11:05:50.520Z,3.02
2023-02-28T11:08:17.373Z,3.06
2023-02-28T11:10:47.468Z,3.08
2023-02-28T11:13:19.076Z,3.06
2023-02-28T11:15:50.475Z,3.15
2023-02-28T11:18:21.505Z,3.18
2023-02-28T11:20:51.942Z,3.20
2023-02-28T11:23:20.010Z,3.19
2023-02-28T11:25:50.566Z,3.18
2023-02-28T11:28:30.385Z,3.20
2023-02-28T11:31:00.887Z,3.29
2023-02-28T11:33:29.107Z,3.39
2023-02-28T11:35:56.968Z,3.39
2023-02-28T11:38:23.738Z,3.41
2023-02-28T11:40:53.260Z,3.37
2023-02-28T11:43:32.600Z,3.34
2023-02-28T11:46:03.110Z,3.41
2023-02-28T11:48:29.587Z,3.48
2023-02-28T11:50:56.045Z,3.43
2023-02-28T11:53:41.918Z,3.41
2023-02-28T11:56:25.681Z,3.39
2023-02-28T11:59:10.960Z,3.43
2023-02-28T12:01:43.431Z,3.45
2023-02-28T12:04:25.474Z,3.37
2023-02-28T12:07:06.227Z,3.41
2023-02-28T12:09:42.742Z,3.45
2023-02-28T12:12:12.247Z,3.53
2023-02-28T12:14:58.024Z,3.55
2023-02-28T12:17:30.911Z,3.53
2023-02-28T12:20:00.908Z,3.41
2023-02-28T12:22:37.403Z,3.46
2023-02-28T12:25:04.201Z,3.48
2023-02-28T12:27:32.395Z,3.53
2023-02-28T12:29:58.945Z,3.43
2023-02-28T12:32:33.369Z,3.51
2023-02-28T12:35:02.741Z,3.54
2023-02-28T12:37:31.125Z,3.44
2023-02-28T12:40:01.838Z,3.45
2023-02-28T12:42:31.830Z,3.48
2023-02-28T12:45:18.540Z,3.52
2023-02-28T12:47:45.779Z,3.63
2023-02-28T12:50:12.827Z,3.57
2023-02-28T12:52:48.997Z,3.50
2023-02-28T12:55:21.933Z,3.56
2023-02-28T12:57:51.548Z,3.57
2023-02-28T13:00:18.859Z,3.49
2023-02-28T13:03:04.235Z,3.49
2023-02-28T13:05:30.724Z,3.54
2023-02-28T13:08:03.675Z,3.47
2023-02-28T13:10:40.379Z,3.39
2023-02-28T13:13:06.877Z,3.31
2023-02-28T13:15:36.231Z,3.30
2023-02-28T13:18:02.771Z,3.37
2023-02-28T13:20:30.974Z,3.41
2023-02-28T13:22:58.240Z,3.49
2023-02-28T13:25:43.209Z,3.65
2023-02-28T13:28:10.235Z,3.61
2023-02-28T13:31:00.543Z,3.45
2023-02-28T13:33:28.061Z,3.31
2023-02-28T13:36:13.456Z,3.20
2023-02-28T13:38:46.739Z,3.12
2023-02-28T13:41:31.641Z,3.24
2023-02-28T13:44:07.460Z,3.20
2023-02-28T13:46:35.090Z,3.18
2023-02-28T13:49:20.142Z,3.20
2023-02-28T13:51:47.930Z,3.18
2023-02-28T13:54:26.944Z,3.19
2023-02-28T13:57:02.851Z,3.12
2023-02-28T13:59:33.348Z,3.24
2023-02-28T14:02:19.418Z,3.17
2023-02-28T14:05:01.567Z,3.21
2023-02-28T14:07:30.532Z,3.25
2023-02-28T14:09:59.143Z,3.13
2023-02-28T14:12:44.133Z,3.06
2023-02-28T14:15:43.253Z,3.06
2023-02-28T14:18:17.053Z,3.08
2023-02-28T14:20:43.679Z,3.10
2023-02-28T14:23:16.202Z,3.11
2023-02-28T14:26:07.898Z,3.04
2023-02-28T14:28:46.581Z,3.09
2023-02-28T14:31:19.151Z,3.05
2023-02-28T14:33:54.767Z,2.91
2023-02-28T14:36:22.928Z,2.83
2023-02-28T14:38:52.900Z,2.92
2023-02-28T14:41:22.448Z,2.88
2023-02-28T14:43:49.826Z,2.89
2023-02-28T14:46:16.309Z,2.88
2023-02-28T14:48:42.823Z,2.84
2023-02-28T14:51:09.432Z,2.70
2023-02-28T14:53:36.651Z,2.71
2023-02-28T14:56:03.148Z,2.76
2023-02-28T14:58:30.668Z,2.79
2023-02-28T15:00:58.121Z,2.85
2023-02-28T15:03:25.660Z,2.84
2023-02-28T15:05:56.096Z,2.86
2023-02-28T15:08:22.735Z,2.81
2023-02-28T15:10:55.390Z,2.69
2023-02-28T15:13:21.886Z,2.64
2023-02-28T15:16:02.270Z,2.62
2023-02-28T15:18:29.657Z,2.64
2023-02-28T15:20:56.854Z,2.70
2023-02-28T15:23:23.358Z,2.65
2023-02-28T15:25:50.037Z,2.56
2023-02-28T15:28:17.663Z,2.58
2023-02-28T15:30:51.567Z,2.57
2023-02-28T15:33:18.065Z,2.52
2023-02-28T15:35:45.154Z,2.38
2023-02-28T15:38:15.495Z,2.48
2023-02-28T15:40:42.819Z,2.35
2023-02-28T15:43:22.258Z,2.30
2023-02-28T15:45:49.988Z,2.31
2023-02-28T15:48:20.812Z,2.18
2023-02-28T15:50:53.243Z,2.08
2023-02-28T15:53:21.183Z,2.06
2023-02-28T15:55:52.997Z,1.98
2023-02-28T15:58:19.860Z,1.91
2023-02-28T16:00:50.479Z,1.95
2023-02-28T16:03:34.106Z,1.84
2023-02-28T16:06:30.089Z,1.78
2023-02-28T16:08:56.550Z,1.66
2023-02-28T16:11:23.049Z,1.59
2023-02-28T16:13:49.870Z,1.48
2023-02-28T16:16:17.488Z,1.37
2023-02-28T16:18:44.048Z,1.28
2023-02-28T16:21:10.521Z,1.22
2023-02-28T16:23:37.094Z,1.15
2023-02-28T16:26:04.479Z,1.15
2023-02-28T16:28:37.996Z,1.09
2023-02-28T16:31:05.227Z,0.99
2023-02-28T16:33:34.636Z,0.89
2023-02-28T16:36:01.223Z,0.77
2023-02-28T16:38:27.718Z,0.78
2023-02-28T16:40:54.301Z,0.69
2023-02-28T16:43:22.230Z,0.72
2023-02-28T16:45:48.786Z,0.66
2023-02-28T16:48:15.994Z,0.62
2023-02-28T16:50:42.602Z,0.58
2023-02-28T16:53:09.156Z,0.57
2023-02-28T16:55:35.820Z,0.49
2023-02-28T16:58:02.619Z,0.48
2023-02-28T17:00:29.373Z,0.42
2023-02-28T17:02:56.096Z,0.32
2023-02-28T17:05:22.765Z,0.21
2023-02-28T17:07:49.386Z,0.14
2023-02-28T17:10:17.300Z,0.13
2023-02-28T17:12:44.076Z,0.07
2023-02-28T17:15:11.369Z,0.12
2023-02-28T17:17:37.882Z,0.07
2023-02-28T17:20:05.226Z,0.02
2023-02-28T17:22:31.687Z,-0.04
2023-02-28T17:24:59.843Z,-0.02
2023-02-28T17:27:26.391Z,-0.04
2023-02-28T17:29:52.811Z,-0.04
2023-02-28T17:32:19.647Z,-0.11
2023-02-28T17:34:47.134Z,-0.13
2023-02-28T17:37:13.893Z,-0.19
2023-02-28T17:39:40.903Z,-0.24
2023-02-28T17:42:07.415Z,-0.27
2023-02-28T17:44:33.934Z,-0.31
2023-02-28T17:47:00.391Z,-0.31
2023-02-28T17:49:27.271Z,-0.37
2023-02-28T17:51:53.734Z,-0.36
2023-02-28T17:54:20.941Z,-0.35
2023-02-28T17:56:47.513Z,-0.38
2023-02-28T17:59:14.065Z,-0.38
2023-02-28T18:01:40.634Z,-0.42
2023-02-28T18:04:07.422Z,-0.44
2023-02-28T18:06:47.576Z,-0.45
2023-02-28T18:09:18.488Z,-0.51
2023-02-28T18:11:50.079Z,-0.52
2023-02-28T18:14:17.093Z,-0.57
2023-02-28T18:16:43.666Z,-0.59
2023-02-28T18:19:15.146Z,-0.62
2023-02-28T18:21:43.253Z,-0.64
2023-02-28T18:24:10.064Z,-0.64
2023-02-28T18:26:36.859Z,-0.66
2023-02-28T18:29:03.637Z,-0.66
2023-02-28T18:31:32.519Z,-0.69
2023-02-28T18:33:59.474Z,-0.69
2023-02-28T18:36:26.041Z,-0.71
2023-02-28T18:38:52.707Z,-0.73
2023-02-28T18:41:21.650Z,-0.76
2023-02-28T18:43:48.343Z,-0.78
2023-02-28T18:46:15.768Z,-0.79
2023-02-28T18:48:42.246Z,-0.81
2023-02-28T18:51:21.945Z,-0.83
2023-02-28T18:53:48.386Z,-0.86
2023-02-28T18:56:15.682Z,-0.88
2023-02-28T18:58:42.282Z,-0.89
2023-02-28T19:01:14.957Z,-0.89
2023-02-28T19:03:41.477Z,-0.92
2023-02-28T19:06:08.117Z,-0.93
2023-02-28T19:08:34.644Z,-0.94
2023-02-28T19:11:06.269Z,-0.94
2023-02-28T19:13:32.768Z,-0.94
2023-02-28T19:16:02.774Z,-0.94
2023-02-28T19:18:29.385Z,-0.94
2023-02-28T19:20:55.893Z,-0.98
2023-02-28T19:23:22.377Z,-0.99
2023-02-28T19:25:48.890Z,-1.03
2023-02-28T19:28:15.518Z,-1.08
2023-02-28T19:30:46.808Z,-1.10
2023-02-28T19:33:13.546Z,-1.14
2023-02-28T19:35:40.596Z,-1.16
2023-02-28T19:38:07.134Z,-1.19
2023-02-28T19:40:33.610Z,-1.22
2023-02-28T19:43:02.747Z,-1.24
2023-02-28T19:45:30.338Z,-1.26
2023-02-28T19:47:56.949Z,-1.27
2023-02-28T19:50:23.420Z,-1.30
2023-02-28T19:52:50.629Z,-1.31
2023-02-28T19:55:17.342Z,-1.32
2023-02-28T19:57:43.811Z,-1.34
2023-02-28T20:00:11.412Z,-1.38
2023-02-28T20:02:38.101Z,-1.42
2023-02-28T20:05:04.749Z,-1.44
2023-02-28T20:07:32.002Z,-1.48
2023-02-28T20:09:58.611Z,-1.51
2023-02-28T20:12:26.248Z,-1.53
2023-02-28T20:14:53.011Z,-1.55
2023-02-28T20:17:19.488Z,-1.57
2023-02-28T20:19:46.007Z,-1.57
2023-02-28T20:22:12.531Z,-1.60
2023-02-28T20:24:39.000Z,-1.62
2023-02-28T20:27:05.583Z,-1.64
2023-02-28T20:29:33.124Z,-1.67
2023-02-28T20:31:59.704Z,-1.69
2023-02-28T20:34:27.049Z,-1.73
2023-02-28T20:36:53.540Z,-1.73
2023-02-28T20:39:20.098Z,-1.77
2023-02-28T20:41:47.308Z,-1.84
2023-02-28T20:44:13.860Z,-1.90
2023-02-28T20:46:41.670Z,-1.94
2023-02-28T20:49:08.177Z,-2.00
2023-02-28T20:51:34.746Z,-2.04
2023-02-28T20:54:01.211Z,-2.11
2023-02-28T20:56:27.986Z,-2.24
2023-02-28T20:58:58.209Z,-2.33
2023-02-28T21:01:28.273Z,-2.43
2023-02-28T21:03:56.175Z,-2.48
2023-02-28T21:06:23.646Z,-2.52
2023-02-28T21:08:50.575Z,-2.54
2023-02-28T21:11:18.262Z,-2.55
2023-02-28T21:13:44.989Z,-2.58
2023-02-28T21:16:12.320Z,-2.58
2023-02-28T21:18:38.898Z,-2.56
2023-02-28T21:21:05.900Z,-2.57
2023-02-28T21:23:32.389Z,-2.59
2023-02-28T21:26:03.103Z,-2.60
2023-02-28T21:28:29.616Z,-2.58
2023-02-28T21:31:00.583Z,-2.57
2023-02-28T21:33:27.117Z,-2.59
2023-02-28T21:35:59.703Z,-2.60
2023-02-28T21:38:26.332Z,-2.63
2023-02-28T21:40:53.083Z,-2.66
2023-02-28T21:43:19.542Z,-2.68
2023-02-28T21:45:46.043Z,-2.68
2023-02-28T21:48:12.536Z,-2.66
2023-02-28T21:50:39.919Z,-2.64
2023-02-28T21:53:06.450Z,-2.62
2023-02-28T21:55:34.337Z,-2.62
2023-02-28T21:58:00.805Z,-2.64
2023-02-28T22:00:27.492Z,-2.67
2023-02-28T22:02:54.558Z,-2.70
2023-02-28T22:05:21.383Z,-2.72
2023-02-28T22:07:47.844Z,-2.74
2023-02-28T22:10:14.457Z,-2.79
2023-02-28T22:12:40.987Z,-2.82
2023-02-28T22:15:07.648Z,-2.88
2023-02-28T22:17:34.140Z,-2.90
2023-02-28T22:20:00.636Z,-2.90
2023-02-28T22:22:27.489Z,-2.95
2023-02-28T22:24:53.952Z,-2.95
2023-02-28T22:27:20.524Z,-2.95
2023-02-28T22:29:48.722Z,-2.98
2023-02-28T22:32:15.593Z,-3.00
2023-02-28T22:34:42.202Z,-3.03
2023-02-28T22:37:08.688Z,-3.04
2023-02-28T22:39:35.154Z,-3.07
2023-02-28T22:42:01.750Z,-3.06
2023-02-28T22:44:28.430Z,-3.08
2023-02-28T22:46:54.951Z,-3.09
2023-02-28T22:49:21.572Z,-3.13
2023-02-28T22:51:48.135Z,-3.16
2023-02-28T22:54:14.606Z,-3.18
2023-02-28T22:56:41.403Z,-3.19
2023-02-28T22:59:07.997Z,-3.20
2023-02-28T23:01:34.794Z,-3.19
2023-02-28T23:04:01.379Z,-3.19
2023-02-28T23:06:29.132Z,-3.19
2023-02-28T23:08:56.651Z,-3.20
2023-02-28T23:11:23.976Z,-3.19
2023-02-28T23:13:59.695Z,-3.17
2023-02-28T23:16:27.254Z,-3.20
2023-02-28T23:18:53.741Z,-3.22
2023-02-28T23:21:20.259Z,-3.22
2023-02-28T23:23:46.714Z,-3.24
2023-02-28T23:26:13.169Z,-3.27
2023-02-28T23:28:39.695Z,-3.30
2023-02-28T23:31:06.319Z,-3.29
2023-02-28T23:33:33.089Z,-3.32
2023-02-28T23:36:17.027Z,-3.33
2023-02-28T23:38:45.755Z,-3.32
2023-02-28T23:41:12.398Z,-3.33
2023-02-28T23:43:40.815Z,-3.33
2023-02-28T23:46:07.642Z,-3.32
2023-02-28T23:48:34.222Z,-3.34
2023-02-28T23:51:01.492Z,-3.36
2023-02-28T23:53:30.144Z,-3.38
2023-02-28T23:55:56.805Z,-3.38
2023-02-28T23:58:23.343Z,-3.42
